createdAt,value
2018-02-14T00:01:49.880Z,19.02
2018-02-14T00:06:11.327Z,14.80
2018-02-14T00:08:38.815Z,16.27
2018-02-14T00:11:06.270Z,15.90
2018-02-14T00:13:33.748Z,16.83
2018-02-14T00:16:01.204Z,17.48
2018-02-14T00:18:28.663Z,16.60
2018-02-14T00:20:56.356Z,18.35
2018-02-14T00:23:23.827Z,16.80
2018-02-14T00:25:51.359Z,17.08
2018-02-14T00:28:18.811Z,18.80
2018-02-14T00:30:47.255Z,16.30
2018-02-14T00:33:14.707Z,15.40
2018-02-14T00:35:42.174Z,17.23
2018-02-14T00:38:09.768Z,15.38
2018-02-14T00:40:37.225Z,14.35
2018-02-14T00:43:04.687Z,15.70
2018-02-14T00:45:32.166Z,17.37
2018-02-14T00:47:59.649Z,15.65
2018-02-14T00:50:27.168Z,14.73
2018-02-14T00:52:55.402Z,15.60
2018-02-14T00:55:22.880Z,17.43
2018-02-14T00:57:50.348Z,17.98
2018-02-14T01:00:17.808Z,16.67
2018-02-14T01:02:45.283Z,15.13
2018-02-14T01:05:12.755Z,15.33
2018-02-14T01:07:40.224Z,17.35
2018-02-14T01:10:07.684Z,15.80
2018-02-14T01:12:35.364Z,16.92
2018-02-14T01:15:02.824Z,13.70
2018-02-14T01:17:30.308Z,17.42
2018-02-14T01:20:03.476Z,16.50
2018-02-14T01:22:30.931Z,17.35
2018-02-14T01:24:58.385Z,18.17
2018-02-14T01:27:26.611Z,17.62
2018-02-14T01:29:54.067Z,21.62
2018-02-14T01:32:21.580Z,18.90
2018-02-14T01:34:49.043Z,17.70
2018-02-14T01:37:16.508Z,17.08
2018-02-14T01:39:43.995Z,18.48
2018-02-14T01:42:11.451Z,16.20
2018-02-14T01:44:38.916Z,21.27
2018-02-14T01:47:06.497Z,20.10
2018-02-14T01:49:34.010Z,18.52
2018-02-14T01:52:02.248Z,18.67
2018-02-14T01:54:29.722Z,15.15
2018-02-14T01:56:57.179Z,18.85
2018-02-14T01:59:24.864Z,18.98
2018-02-14T02:01:52.332Z,17.50
2018-02-14T02:04:19.803Z,19.05
2018-02-14T02:06:47.368Z,17.77
2018-02-14T02:09:14.939Z,17.83
2018-02-14T02:11:42.419Z,20.90
2018-02-14T02:14:09.930Z,19.37
2018-02-14T02:16:38.151Z,19.48
2018-02-14T02:19:05.639Z,20.40
2018-02-14T02:21:33.208Z,19.27
2018-02-14T02:24:00.683Z,16.80
2018-02-14T02:26:28.239Z,17.08
2018-02-14T02:28:55.709Z,19.83
2018-02-14T02:31:23.201Z,19.85
2018-02-14T02:33:50.663Z,19.80
2018-02-14T02:36:18.179Z,20.00
2018-02-14T02:38:46.423Z,17.42
2018-02-14T02:41:13.888Z,17.08
2018-02-14T02:43:41.370Z,19.10
2018-02-14T02:46:08.928Z,16.83
2018-02-14T02:48:36.399Z,18.15
2018-02-14T02:51:03.880Z,17.80
2018-02-14T02:53:31.355Z,17.10
2018-02-14T02:55:58.908Z,17.15
2018-02-14T02:58:26.384Z,19.23
2018-02-14T03:00:53.844Z,17.73
2018-02-14T03:03:21.424Z,20.12
2018-02-14T03:05:49.087Z,19.55
2018-02-14T03:08:16.572Z,20.58
2018-02-14T03:10:44.031Z,16.92
2018-02-14T03:13:11.601Z,18.05
2018-02-14T03:15:39.179Z,19.17
2018-02-14T03:18:06.641Z,21.95
2018-02-14T03:20:34.112Z,16.55
2018-02-14T03:23:01.684Z,19.80
2018-02-14T03:25:29.205Z,18.10
2018-02-14T03:27:57.436Z,22.52
2018-02-14T03:30:24.908Z,18.85
2018-02-14T03:32:52.483Z,15.30
2018-02-14T03:35:19.963Z,17.77
2018-02-14T03:37:47.434Z,16.90
2018-02-14T03:40:14.900Z,15.20
2018-02-14T03:42:42.390Z,17.63
2018-02-14T03:45:10.652Z,16.92
2018-02-14T03:47:38.123Z,18.67
2018-02-14T03:50:05.686Z,20.40
2018-02-14T03:52:33.164Z,21.93
2018-02-14T03:55:00.656Z,16.25
2018-02-14T03:57:28.115Z,19.55
2018-02-14T03:59:55.580Z,17.98
2018-02-14T04:02:23.055Z,19.67
2018-02-14T04:04:50.532Z,18.67
2018-02-14T04:07:18.075Z,20.35
2018-02-14T04:09:45.535Z,23.05
2018-02-14T04:12:12.996Z,17.00
2018-02-14T04:14:40.467Z,17.90
2018-02-14T04:17:07.960Z,19.50
2018-02-14T04:19:35.428Z,17.73
2018-02-14T04:22:03.007Z,19.85
2018-02-14T04:24:30.472Z,17.40
2018-02-14T04:26:57.936Z,16.67
2018-02-14T04:29:25.399Z,15.52
2018-02-14T04:31:52.892Z,19.70
2018-02-14T04:34:20.363Z,17.12
2018-02-14T04:36:47.918Z,17.15
2018-02-14T04:39:15.383Z,18.50
2018-02-14T04:41:42.856Z,20.45
2018-02-14T04:44:10.322Z,20.50
2018-02-14T04:46:37.903Z,19.10
2018-02-14T04:49:05.468Z,17.55
2018-02-14T04:51:32.931Z,20.23
2018-02-14T04:54:00.443Z,20.48
2018-02-14T04:56:28.688Z,25.10
2018-02-14T04:58:56.148Z,26.10
2018-02-14T05:01:23.739Z,19.42
2018-02-14T05:03:51.243Z,24.12
2018-02-14T05:06:19.512Z,21.55
2018-02-14T05:08:47.067Z,21.52
2018-02-14T05:11:14.523Z,20.98
2018-02-14T05:13:41.995Z,21.20
2018-02-14T05:16:09.478Z,24.77
2018-02-14T05:18:37.043Z,20.33
2018-02-14T05:21:04.512Z,22.25
2018-02-14T05:23:31.983Z,21.40
2018-02-14T05:25:59.555Z,20.10
2018-02-14T05:28:27.023Z,23.03
2018-02-14T05:30:54.620Z,22.75
2018-02-14T05:33:22.118Z,23.55
2018-02-14T05:35:49.580Z,21.70
2018-02-14T05:38:17.819Z,22.80
2018-02-14T05:40:45.307Z,21.48
2018-02-14T05:43:12.865Z,25.23
2018-02-14T05:45:40.339Z,23.98
2018-02-14T05:48:07.916Z,19.55
2018-02-14T05:50:35.391Z,23.70
2018-02-14T05:53:02.948Z,24.40
2018-02-14T05:55:30.428Z,20.67
2018-02-14T05:57:57.888Z,24.30
2018-02-14T06:00:25.513Z,22.30
2018-02-14T06:02:52.940Z,20.80
2018-02-14T06:05:20.407Z,21.10
2018-02-14T06:07:47.869Z,22.48
2018-02-14T06:10:15.386Z,25.90
2018-02-14T06:12:43.623Z,20.35
2018-02-14T06:15:11.100Z,21.85
2018-02-14T06:17:38.675Z,23.67
2018-02-14T06:20:06.139Z,22.00
2018-02-14T06:22:33.633Z,21.20
2018-02-14T06:25:01.103Z,22.87
2018-02-14T06:27:28.651Z,25.98
2018-02-14T06:29:56.231Z,23.60
2018-02-14T06:32:23.787Z,23.25
2018-02-14T06:34:51.261Z,22.00
2018-02-14T06:37:18.844Z,27.23
2018-02-14T06:39:46.398Z,22.37
2018-02-14T06:42:13.979Z,27.23
2018-02-14T06:44:41.457Z,23.67
2018-02-14T06:47:08.943Z,29.55
2018-02-14T06:49:37.211Z,23.95
2018-02-14T06:52:04.780Z,24.27
2018-02-14T06:54:32.259Z,22.20
2018-02-14T06:56:59.719Z,25.67
2018-02-14T06:59:27.199Z,25.85
2018-02-14T07:01:55.430Z,23.98
2018-02-14T07:04:22.900Z,25.23
2018-02-14T07:06:50.372Z,29.95
2018-02-14T07:09:17.851Z,26.42
2018-02-14T07:11:45.356Z,27.23
2018-02-14T07:14:12.830Z,25.50
2018-02-14T07:16:40.396Z,26.10
2018-02-14T07:19:07.967Z,25.85
2018-02-14T07:21:35.532Z,26.70
2018-02-14T07:24:03.023Z,28.27
2018-02-14T07:26:30.479Z,29.17
2018-02-14T07:28:58.056Z,29.83
2018-02-14T07:31:25.534Z,27.30
2018-02-14T07:33:53.007Z,26.80
2018-02-14T07:36:20.480Z,26.73
2018-02-14T07:38:47.956Z,22.95
2018-02-14T07:41:16.312Z,22.67
2018-02-14T07:43:43.779Z,22.20
2018-02-14T07:46:11.358Z,23.43
2018-02-14T07:48:38.826Z,22.15
2018-02-14T07:51:06.279Z,21.15
2018-02-14T07:53:33.743Z,23.80
2018-02-14T07:56:01.286Z,20.50
2018-02-14T07:58:29.523Z,22.58
2018-02-14T08:00:56.988Z,27.40
2018-02-14T08:03:24.567Z,28.35
2018-02-14T08:05:52.065Z,20.80
2018-02-14T08:08:20.313Z,19.58
2018-02-14T08:10:47.808Z,23.65
2018-02-14T08:13:15.260Z,25.33
2018-02-14T08:15:42.731Z,24.55
2018-02-14T08:18:10.199Z,21.70
2018-02-14T08:20:37.779Z,23.10
2018-02-14T08:23:05.243Z,22.10
2018-02-14T08:25:32.703Z,22.08
2018-02-14T08:28:00.303Z,22.35
2018-02-14T08:30:27.867Z,21.65
2018-02-14T08:32:56.151Z,21.45
2018-02-14T08:35:23.624Z,19.75
2018-02-14T08:37:51.092Z,22.92
2018-02-14T08:40:18.705Z,20.17
2018-02-14T08:42:46.923Z,20.37
2018-02-14T08:45:14.412Z,21.95
2018-02-14T08:47:41.987Z,20.73
2018-02-14T08:50:09.443Z,21.08
2018-02-14T08:52:36.927Z,18.75
2018-02-14T08:55:04.400Z,20.88
2018-02-14T08:57:31.964Z,16.70
2018-02-14T08:59:59.513Z,17.95
2018-02-14T09:02:26.975Z,18.67
2018-02-14T09:04:54.471Z,16.33
2018-02-14T09:07:21.947Z,19.37
2018-02-14T09:09:49.403Z,17.05
2018-02-14T09:12:16.878Z,18.00
2018-02-14T09:14:44.363Z,16.70
2018-02-14T09:17:11.839Z,18.33
2018-02-14T09:19:39.303Z,17.50
2018-02-14T09:22:06.867Z,15.27
2018-02-14T09:24:34.343Z,17.80
2018-02-14T09:27:01.806Z,15.73
2018-02-14T09:29:29.371Z,15.43
2018-02-14T09:31:56.835Z,15.75
2018-02-14T09:34:24.319Z,18.58
2018-02-14T09:36:51.918Z,16.10
2018-02-14T09:39:20.136Z,18.87
2018-02-14T09:41:47.615Z,17.05
2018-02-14T09:44:15.107Z,16.50
2018-02-14T09:46:42.697Z,15.93
2018-02-14T09:49:10.146Z,14.38
2018-02-14T09:51:37.602Z,15.50
2018-02-14T09:54:05.079Z,18.70
2018-02-14T09:56:32.548Z,16.50
2018-02-14T09:59:00.039Z,17.02
2018-02-14T10:01:27.511Z,15.30
2018-02-14T10:03:55.023Z,18.08
2018-02-14T10:06:23.257Z,16.67
2018-02-14T10:08:50.720Z,17.95
2018-02-14T10:11:18.195Z,14.65
2018-02-14T10:13:45.683Z,17.20
2018-02-14T10:16:13.143Z,18.50
2018-02-14T10:18:40.608Z,18.95
2018-02-14T10:21:08.072Z,17.33
2018-02-14T10:23:35.527Z,15.25
2018-02-14T10:26:03.010Z,16.70
2018-02-14T10:28:30.476Z,16.77
2018-02-14T10:30:57.968Z,15.68
2018-02-14T10:33:25.448Z,14.23
2018-02-14T10:35:52.999Z,14.82
2018-02-14T10:38:20.491Z,27.73
2018-02-14T10:40:47.940Z,14.18
2018-02-14T10:43:15.404Z,14.60
2018-02-14T10:45:42.867Z,15.33
2018-02-14T10:48:10.339Z,13.13
2018-02-14T10:50:37.807Z,57.75
2018-02-14T10:53:05.284Z,15.65
2018-02-14T10:55:32.747Z,14.70
2018-02-14T10:58:00.212Z,17.75
2018-02-14T11:00:33.395Z,17.40
2018-02-14T11:03:06.438Z,12.95
2018-02-14T11:05:33.999Z,15.05
2018-02-14T11:08:01.587Z,14.10
2018-02-14T11:10:29.039Z,11.80
2018-02-14T11:12:56.607Z,14.50
2018-02-14T11:15:24.090Z,16.00
2018-02-14T11:17:51.540Z,15.68
2018-02-14T11:20:19.115Z,12.55
2018-02-14T11:22:46.584Z,13.13
2018-02-14T11:25:14.057Z,13.07
2018-02-14T11:27:41.532Z,17.75
2018-02-14T11:30:09.827Z,9.77
2018-02-14T11:32:37.283Z,9.40
2018-02-14T11:35:04.751Z,15.13
2018-02-14T11:37:32.224Z,8.90
2018-02-14T11:39:59.684Z,12.00
2018-02-14T11:42:27.144Z,10.40
2018-02-14T11:44:54.611Z,9.10
2018-02-14T11:47:22.112Z,9.63
2018-02-14T11:49:49.580Z,10.05
2018-02-14T11:52:17.140Z,9.68
2018-02-14T11:54:44.603Z,11.27
2018-02-14T11:57:12.075Z,10.18
2018-02-14T11:59:39.558Z,12.02
2018-02-14T12:02:07.019Z,9.75
2018-02-14T12:04:34.491Z,9.45
2018-02-14T12:07:01.964Z,9.60
2018-02-14T12:09:29.431Z,11.43
2018-02-14T12:11:56.904Z,10.40
2018-02-14T12:14:24.367Z,10.52
2018-02-14T12:16:51.841Z,8.60
2018-02-14T12:19:19.313Z,11.02
2018-02-14T12:21:46.775Z,9.95
2018-02-14T12:24:14.231Z,10.25
2018-02-14T12:26:41.719Z,8.52
2018-02-14T12:29:09.188Z,9.00
2018-02-14T12:31:36.768Z,11.55
2018-02-14T12:34:05.768Z,8.30
2018-02-14T12:36:33.327Z,7.93
2018-02-14T12:39:00.803Z,8.30
2018-02-14T12:41:28.260Z,8.10
2018-02-14T12:43:55.849Z,7.62
2018-02-14T12:46:23.319Z,8.07
2018-02-14T12:48:50.780Z,9.25
2018-02-14T12:51:18.260Z,9.43
2018-02-14T12:53:45.747Z,8.87
2018-02-14T12:56:13.172Z,9.18
2018-02-14T12:58:40.643Z,7.80
2018-02-14T13:01:08.139Z,10.20
2018-02-14T13:03:35.596Z,9.63
2018-02-14T13:06:03.071Z,8.98
2018-02-14T13:08:30.561Z,9.73
2018-02-14T13:10:58.029Z,9.00
2018-02-14T13:13:25.500Z,8.23
2018-02-14T13:15:53.152Z,7.32
2018-02-14T13:18:20.608Z,8.95
2018-02-14T13:20:48.058Z,7.30
2018-02-14T13:23:15.540Z,8.95
2018-02-14T13:25:43.039Z,7.90
2018-02-14T13:28:10.500Z,8.20
2018-02-14T13:30:37.960Z,8.05
2018-02-14T13:33:05.440Z,8.05
2018-02-14T13:35:32.903Z,7.90
2018-02-14T13:38:00.377Z,7.60
2018-02-14T13:40:27.853Z,9.05
2018-02-14T13:42:55.307Z,9.00
2018-02-14T13:45:22.801Z,7.40
2018-02-14T13:47:50.354Z,7.45
2018-02-14T13:50:17.820Z,8.27
2018-02-14T13:52:45.294Z,7.65
2018-02-14T13:55:12.795Z,6.83
2018-02-14T13:57:40.340Z,8.93
2018-02-14T14:00:07.811Z,7.18
2018-02-14T14:02:35.480Z,8.40
2018-02-14T14:05:02.952Z,7.00
2018-02-14T14:07:30.410Z,6.55
2018-02-14T14:09:57.884Z,6.03
2018-02-14T14:12:25.375Z,8.30
2018-02-14T14:14:52.835Z,6.00
2018-02-14T14:17:20.299Z,8.98
2018-02-14T14:19:47.771Z,5.70
2018-02-14T14:22:15.224Z,5.60
2018-02-14T14:24:42.704Z,7.60
2018-02-14T14:27:10.171Z,7.15
2018-02-14T14:29:37.749Z,5.65
2018-02-14T14:32:05.215Z,7.78
2018-02-14T14:34:32.692Z,5.78
2018-02-14T14:37:00.259Z,5.45
2018-02-14T14:39:27.832Z,5.60
2018-02-14T14:41:55.288Z,5.53
2018-02-14T14:44:22.887Z,7.05
2018-02-14T14:46:50.355Z,6.50
2018-02-14T14:49:17.819Z,5.40
2018-02-14T14:51:45.386Z,5.70
2018-02-14T14:54:12.864Z,5.10
2018-02-14T14:56:40.321Z,5.55
2018-02-14T14:59:07.808Z,5.47
2018-02-14T15:01:35.271Z,4.95
2018-02-14T15:04:02.814Z,6.68
2018-02-14T15:06:30.302Z,5.47
2018-02-14T15:08:57.772Z,7.28
2018-02-14T15:11:25.247Z,6.20
2018-02-14T15:13:52.744Z,7.05
2018-02-14T15:16:21.008Z,5.90
2018-02-14T15:18:49.236Z,5.93
2018-02-14T15:21:16.706Z,7.30
2018-02-14T15:23:44.942Z,7.40
2018-02-14T15:26:12.407Z,8.82
2018-02-14T15:28:40.097Z,9.90
2018-02-14T15:31:07.560Z,6.82
2018-02-14T15:33:35.038Z,7.90
2018-02-14T15:36:02.607Z,7.60
2018-02-14T15:38:30.072Z,6.20
2018-02-14T15:40:57.752Z,9.23
2018-02-14T15:43:25.222Z,6.82
2018-02-14T15:45:52.719Z,7.45
2018-02-14T15:48:20.961Z,9.30
2018-02-14T15:50:48.491Z,7.22
2018-02-14T15:53:16.007Z,8.57
2018-02-14T15:55:43.479Z,7.43
2018-02-14T15:58:10.947Z,10.48
2018-02-14T16:00:38.416Z,7.70
2018-02-14T16:03:05.902Z,9.45
2018-02-14T16:05:33.472Z,8.80
2018-02-14T16:08:01.039Z,9.05
2018-02-14T16:10:28.523Z,8.35
2018-02-14T16:12:55.992Z,8.60
2018-02-14T16:15:23.588Z,9.63
2018-02-14T16:17:51.013Z,7.72
2018-02-14T16:20:18.487Z,11.75
2018-02-14T16:22:46.056Z,9.32
2018-02-14T16:25:13.508Z,16.27
2018-02-14T16:27:40.967Z,7.43
2018-02-14T16:30:08.423Z,6.90
2018-02-14T16:32:35.932Z,15.00
2018-02-14T16:35:03.384Z,7.37
2018-02-14T16:37:30.879Z,11.02
2018-02-14T16:39:58.327Z,8.80
2018-02-14T16:42:25.926Z,14.00
2018-02-14T16:44:53.392Z,10.02
2018-02-14T16:47:20.848Z,9.07
2018-02-14T16:49:48.307Z,7.78
2018-02-14T16:52:15.771Z,10.60
2018-02-14T16:54:43.261Z,9.82
2018-02-14T16:57:10.712Z,6.65
2018-02-14T16:59:38.199Z,8.13
2018-02-14T17:02:07.168Z,10.50
2018-02-14T17:04:34.623Z,8.35
2018-02-14T17:07:02.084Z,9.93
2018-02-14T17:09:30.432Z,7.75
2018-02-14T17:11:57.890Z,12.48
2018-02-14T17:14:25.351Z,14.48
2018-02-14T17:16:52.857Z,12.95
2018-02-14T17:19:20.315Z,14.63
2018-02-14T17:21:47.789Z,11.95
2018-02-14T17:24:15.251Z,22.65
2018-02-14T17:26:42.707Z,25.08
2018-02-14T17:29:10.287Z,15.35
2018-02-14T17:31:37.743Z,24.30
2018-02-14T17:34:05.209Z,25.37
2018-02-14T17:36:32.701Z,37.15
2018-02-14T17:39:00.163Z,25.62
2018-02-14T17:41:27.631Z,27.58
2018-02-14T17:43:55.108Z,59.90
2018-02-14T17:46:22.600Z,59.33
2018-02-14T17:48:50.048Z,49.40
2018-02-14T17:51:17.631Z,15.68
2018-02-14T17:53:45.204Z,10.40
2018-02-14T17:56:12.822Z,12.55
2018-02-14T17:58:40.394Z,8.75
2018-02-14T18:01:07.839Z,8.80
2018-02-14T18:03:36.092Z,13.27
2018-02-14T18:06:03.567Z,9.75
2018-02-14T18:08:31.025Z,7.78
2018-02-14T18:10:58.487Z,12.88
2018-02-14T18:13:25.944Z,9.93
2018-02-14T18:15:53.407Z,9.90
2018-02-14T18:18:20.867Z,11.35
2018-02-14T18:20:48.442Z,10.75
2018-02-14T18:23:15.847Z,12.37
2018-02-14T18:25:43.312Z,10.95
2018-02-14T18:28:10.767Z,10.95
2018-02-14T18:30:38.227Z,9.80
2018-02-14T18:33:05.727Z,9.27
2018-02-14T18:35:33.254Z,10.00
2018-02-14T18:38:00.772Z,10.90
2018-02-14T18:40:28.236Z,9.15
2018-02-14T18:42:55.723Z,9.27
2018-02-14T18:45:23.179Z,9.00
2018-02-14T18:47:50.644Z,12.25
2018-02-14T18:50:18.316Z,11.85
2018-02-14T18:52:45.797Z,12.30
2018-02-14T18:55:13.251Z,17.77
2018-02-14T18:57:40.733Z,16.50
2018-02-14T19:00:08.197Z,11.65
2018-02-14T19:02:35.680Z,10.70
2018-02-14T19:05:03.136Z,14.48
2018-02-14T19:07:30.601Z,12.63
2018-02-14T19:09:58.284Z,10.25
2018-02-14T19:12:25.755Z,13.88
2018-02-14T19:14:53.232Z,8.70
2018-02-14T19:17:20.792Z,16.02
2018-02-14T19:19:48.249Z,11.60
2018-02-14T19:22:15.727Z,11.27
2018-02-14T19:24:43.179Z,10.70
2018-02-14T19:27:10.628Z,11.82
2018-02-14T19:29:38.083Z,10.65
2018-02-14T19:32:06.303Z,9.60
2018-02-14T19:34:33.763Z,14.65
2018-02-14T19:37:01.219Z,10.00
2018-02-14T19:39:28.736Z,12.98
2018-02-14T19:41:56.203Z,12.37
2018-02-14T19:44:23.714Z,13.75
2018-02-14T19:46:51.140Z,14.85
2018-02-14T19:49:18.608Z,12.73
2018-02-14T19:51:46.075Z,13.00
2018-02-14T19:54:13.547Z,11.32
2018-02-14T19:56:41.007Z,20.60
2018-02-14T19:59:08.493Z,9.32
2018-02-14T20:01:35.972Z,11.95
2018-02-14T20:04:03.427Z,14.07
2018-02-14T20:06:30.890Z,10.48
2018-02-14T20:08:58.351Z,11.90
2018-02-14T20:11:25.809Z,14.20
2018-02-14T20:13:53.391Z,13.27
2018-02-14T20:16:20.840Z,19.05
2018-02-14T20:18:48.297Z,14.50
2018-02-14T20:21:15.812Z,15.90
2018-02-14T20:23:43.294Z,18.17
2018-02-14T20:26:10.764Z,14.35
2018-02-14T20:28:38.223Z,13.80
2018-02-14T20:31:05.676Z,18.05
2018-02-14T20:33:33.354Z,14.23
2018-02-14T20:36:00.848Z,12.70
2018-02-14T20:38:28.306Z,12.18
2018-02-14T20:40:55.833Z,19.48
2018-02-14T20:43:24.051Z,12.37
2018-02-14T20:45:51.535Z,15.32
2018-02-14T20:48:19.015Z,15.65
2018-02-14T20:50:46.476Z,20.45
2018-02-14T20:53:14.044Z,14.00
2018-02-14T20:55:41.501Z,13.52
2018-02-14T20:58:08.983Z,16.17
2018-02-14T21:00:36.556Z,17.35
2018-02-14T21:03:04.023Z,19.45
2018-02-14T21:05:31.509Z,17.17
2018-02-14T21:07:58.963Z,13.73
2018-02-14T21:10:26.435Z,14.50
2018-02-14T21:12:53.896Z,15.88
2018-02-14T21:15:21.480Z,17.08
2018-02-14T21:17:48.944Z,17.23
2018-02-14T21:20:16.396Z,17.58
2018-02-14T21:22:43.864Z,16.40
2018-02-14T21:25:11.315Z,14.40
2018-02-14T21:27:38.819Z,15.32
2018-02-14T21:30:06.306Z,15.02
2018-02-14T21:32:33.763Z,17.45
2018-02-14T21:35:01.220Z,16.45
2018-02-14T21:37:28.808Z,14.35
2018-02-14T21:39:56.264Z,16.12
2018-02-14T21:42:23.752Z,14.77
2018-02-14T21:44:51.208Z,13.10
2018-02-14T21:47:18.672Z,11.32
2018-02-14T21:49:46.127Z,11.65
2018-02-14T21:52:13.615Z,15.30
2018-02-14T21:54:41.071Z,14.63
2018-02-14T21:57:08.561Z,13.27
2018-02-14T21:59:36.024Z,14.23
2018-02-14T22:02:03.497Z,11.68
2018-02-14T22:04:30.978Z,12.63
2018-02-14T22:06:58.440Z,16.23
2018-02-14T22:09:25.899Z,14.80
2018-02-14T22:11:53.363Z,16.45
2018-02-14T22:14:20.843Z,16.65
2018-02-14T22:16:48.327Z,13.77
2018-02-14T22:19:15.783Z,20.25
2018-02-14T22:21:43.235Z,13.32
2018-02-14T22:24:10.716Z,14.68
2018-02-14T22:26:38.196Z,12.85
2018-02-14T22:29:05.664Z,13.98
2018-02-14T22:31:33.128Z,12.55
2018-02-14T22:34:00.608Z,19.77
2018-02-14T22:36:28.096Z,12.63
2018-02-14T22:38:55.772Z,10.60
2018-02-14T22:41:23.233Z,12.65
2018-02-14T22:43:50.782Z,16.75
2018-02-14T22:46:18.239Z,13.65
2018-02-14T22:48:45.723Z,11.85
2018-02-14T22:51:13.180Z,15.10
2018-02-14T22:53:40.631Z,14.25
2018-02-14T22:56:08.095Z,12.65
2018-02-14T22:58:35.560Z,15.57
2018-02-14T23:01:03.080Z,13.27
2018-02-14T23:03:30.532Z,16.62
2018-02-14T23:05:58.019Z,14.95
2018-02-14T23:08:25.593Z,17.15
2018-02-14T23:10:53.168Z,16.85
2018-02-14T23:13:20.650Z,18.48
2018-02-14T23:15:48.148Z,16.85
2018-02-14T23:18:16.384Z,14.02
2018-02-14T23:20:43.863Z,21.42
2018-02-14T23:23:11.427Z,13.48
2018-02-14T23:25:38.891Z,14.95
2018-02-14T23:28:06.463Z,22.30
2018-02-14T23:30:33.915Z,12.88
2018-02-14T23:33:01.380Z,19.70
2018-02-14T23:35:28.864Z,16.00
2018-02-14T23:37:56.355Z,18.27
2018-02-14T23:40:23.816Z,19.60
2018-02-14T23:42:51.388Z,17.62
2018-02-14T23:45:18.851Z,19.87
2018-02-14T23:47:46.315Z,18.70
2018-02-14T23:50:13.791Z,17.10
2018-02-14T23:52:41.264Z,16.62
2018-02-14T23:55:08.732Z,19.58
2018-02-14T23:57:36.207Z,18.02
